Welcome to Des Moines Iowa Weather. I am an independent private personal weather station on the Northwest Side of Des Moines, Iowa. Just East of Windsor Heights and just West of Glendale . This site is also mobile friendly.

There are no active watches, warnings or advisories


Visit our other weather sites:

Historical Data

Weather Station Setup



Weather Underground History page Text

Daily Summary for November 8, 2017 Units:  English    Metric   Both
« Previous Day
Next Day »
Daily Weekly Monthly Yearly Custom
  High: Low: Average:
Temperature: 47.7 °F 21.9 °F 34.1 °F
Dew Point: 32.0 °F 20.0 °F 25.9 °F
Humidity: 94 % 50 % 74 %
Wind Speed: 3.0 mph 0.0 mph 0.2 mph
Wind Gust: 8.0 mph - -
Wind:- - SE
Pressure: 30.42 in 30.13 in -
Precipitation: 0.00 in    
Historical Graphs
 
 
Tabular Data for November 8, 2017
Time Temperature Dew Point Pressure Wind Wind Speed Wind Gust Humidity Rainfall Rate (Hourly)
00:03 26.2 °F 23.0 °F 30.42 in Calm     86 % 0.00 in
00:18 26.0 °F 22.0 °F 30.41 in Calm     86 % 0.00 in
00:33 25.8 °F 23.0 °F 30.41 in Calm     87 % 0.00 in
00:48 25.7 °F 22.0 °F 30.41 in Calm     87 % 0.00 in
01:03 25.4 °F 22.0 °F 30.41 in Calm     87 % 0.00 in
01:18 25.2 °F 22.0 °F 30.41 in Calm     88 % 0.00 in
01:48 25.0 °F 22.0 °F 30.41 in Calm     88 % 0.00 in
02:03 24.8 °F 22.0 °F 30.41 in Calm     88 % 0.00 in
02:18 24.4 °F 21.0 °F 30.41 in Calm     88 % 0.00 in
02:33 24.2 °F 21.0 °F 30.40 in Calm     88 % 0.00 in
02:48 24.1 °F 21.0 °F 30.40 in Calm     89 % 0.00 in
02:54 24.0 °F 21.0 °F 30.40 in Calm     89 % 0.00 in
03:09 23.9 °F 21.0 °F 30.40 in Calm     89 % 0.00 in
03:24 23.7 °F 21.0 °F 30.40 in Calm     89 % 0.00 in
03:39 23.5 °F 21.0 °F 30.40 in Calm     89 % 0.00 in
03:54 23.3 °F 21.0 °F 30.40 in Calm     90 % 0.00 in
04:09 23.2 °F 21.0 °F 30.39 in Calm     90 % 0.00 in
04:24 23.1 °F 21.0 °F 30.40 in Calm     90 % 0.00 in
04:39 22.8 °F 20.0 °F 30.39 in Calm     90 % 0.00 in
04:54 22.6 °F 20.0 °F 30.39 in Calm     90 % 0.00 in
05:09 22.4 °F 20.0 °F 30.40 in Calm     90 % 0.00 in
05:24 22.2 °F 20.0 °F 30.40 in Calm     90 % 0.00 in
05:39 22.0 °F 20.0 °F 30.39 in Calm     90 % 0.00 in
05:50 22.0 °F 20.0 °F 30.40 in Calm     90 % 0.00 in
06:05 22.0 °F 20.0 °F 30.40 in Calm     91 % 0.00 in
06:20 22.0 °F 20.0 °F 30.40 in Calm     91 % 0.00 in
06:35 22.0 °F 20.0 °F 30.40 in Calm     91 % 0.00 in
06:50 21.9 °F 20.0 °F 30.41 in Calm     91 % 0.00 in
07:05 21.9 °F 20.0 °F 30.41 in Calm     91 % 0.00 in
07:20 21.9 °F 20.0 °F 30.41 in Calm     92 % 0.00 in
07:35 22.0 °F 20.0 °F 30.41 in Calm     92 % 0.00 in
07:50 22.2 °F 20.0 °F 30.41 in Calm     92 % 0.00 in
08:05 22.6 °F 21.0 °F 30.41 in Calm     92 % 0.00 in
08:20 23.5 °F 22.0 °F 30.41 in Calm     93 % 0.00 in
08:35 25.1 °F 24.0 °F 30.41 in Calm     94 % 0.00 in
08:50 26.6 °F 25.0 °F 30.41 in Calm     94 % 0.00 in
09:05 28.1 °F 27.0 °F 30.41 in Calm   1.0 mph 94 % 0.00 in
09:35 30.6 °F 29.0 °F 30.40 in Calm   3.0 mph 93 % 0.00 in
09:50 32.7 °F 31.0 °F 30.39 in Calm   2.0 mph 92 % 0.00 in
10:05 36.7 °F 30.0 °F 30.39 in SE 2.0 mph 4.0 mph 76 % 0.00 in
10:20 37.4 °F 29.0 °F 30.39 in Calm   6.0 mph 72 % 0.00 in
10:35 37.8 °F 30.0 °F 30.39 in North 1.0 mph 4.0 mph 73 % 0.00 in
10:51 38.3 °F 30.0 °F 30.38 in Calm   5.0 mph 73 % 0.00 in
11:06 39.1 °F 30.0 °F 30.37 in North 1.0 mph 4.0 mph 71 % 0.00 in
11:21 39.8 °F 31.0 °F 30.36 in East 1.0 mph 4.0 mph 70 % 0.00 in
11:36 40.8 °F 31.0 °F 30.35 in Calm   6.0 mph 69 % 0.00 in
11:51 43.4 °F 31.0 °F 30.33 in SSE 1.0 mph 5.0 mph 61 % 0.00 in
12:06 44.9 °F 32.0 °F 30.32 in Calm   3.0 mph 60 % 0.00 in
12:21 45.5 °F 30.0 °F 30.31 in Calm   6.0 mph 56 % 0.00 in
12:36 46.2 °F 32.0 °F 30.30 in South 1.0 mph 5.0 mph 57 % 0.00 in
12:51 46.8 °F 31.0 °F 30.29 in South 3.0 mph 5.0 mph 55 % 0.00 in
13:06 47.3 °F 31.0 °F 30.28 in North 2.0 mph 4.0 mph 54 % 0.00 in
13:21 47.4 °F 30.0 °F 30.27 in Calm   8.0 mph 51 % 0.00 in
13:36 47.7 °F 30.0 °F 30.26 in East 1.0 mph 5.0 mph 50 % 0.00 in
13:51 47.7 °F 30.0 °F 30.25 in SE 2.0 mph 4.0 mph 50 % 0.00 in
14:06 47.2 °F 30.0 °F 30.24 in Calm   4.0 mph 51 % 0.00 in
14:21 47.2 °F 30.0 °F 30.24 in Calm   5.0 mph 51 % 0.00 in
14:37 47.2 °F 30.0 °F 30.24 in Calm   5.0 mph 51 % 0.00 in
14:52 46.8 °F 29.0 °F 30.23 in Calm   4.0 mph 51 % 0.00 in
15:07 46.9 °F 30.0 °F 30.23 in Calm   5.0 mph 52 % 0.00 in
15:22 46.8 °F 29.0 °F 30.22 in Calm   8.0 mph 51 % 0.00 in
15:37 46.4 °F 29.0 °F 30.21 in Calm   4.0 mph 52 % 0.00 in
15:52 46.4 °F 29.0 °F 30.21 in SSE 1.0 mph 6.0 mph 52 % 0.00 in
16:07 46.2 °F 29.0 °F 30.21 in SSE 3.0 mph 5.0 mph 52 % 0.00 in
16:22 46.0 °F 29.0 °F 30.20 in Calm   3.0 mph 52 % 0.00 in
16:37 45.7 °F 29.0 °F 30.20 in Calm   3.0 mph 53 % 0.00 in
16:52 45.2 °F 29.0 °F 30.20 in Calm   2.0 mph 53 % 0.00 in
17:07 44.7 °F 29.0 °F 30.20 in Calm     54 % 0.00 in
17:22 43.8 °F 29.0 °F 30.20 in Calm     56 % 0.00 in
17:37 42.8 °F 28.0 °F 30.19 in Calm     57 % 0.00 in
17:52 41.9 °F 28.0 °F 30.19 in Calm     59 % 0.00 in
18:07 41.0 °F 28.0 °F 30.19 in Calm     61 % 0.00 in
18:22 40.1 °F 28.0 °F 30.20 in Calm     62 % 0.00 in
18:37 39.3 °F 28.0 °F 30.19 in Calm     64 % 0.00 in
18:52 38.6 °F 28.0 °F 30.19 in Calm     65 % 0.00 in
19:07 38.0 °F 27.0 °F 30.19 in Calm     66 % 0.00 in
19:22 37.5 °F 27.0 °F 30.19 in Calm     67 % 0.00 in
19:37 37.0 °F 28.0 °F 30.18 in Calm     69 % 0.00 in
19:52 36.8 °F 27.0 °F 30.18 in Calm     69 % 0.00 in
20:07 36.6 °F 28.0 °F 30.18 in Calm   1.0 mph 70 % 0.00 in
20:22 36.4 °F 28.0 °F 30.18 in Calm     71 % 0.00 in
20:37 36.3 °F 28.0 °F 30.18 in Calm     72 % 0.00 in
20:52 36.2 °F 28.0 °F 30.18 in Calm     71 % 0.00 in
21:07 36.0 °F 27.0 °F 30.18 in Calm     71 % 0.00 in
21:27 35.7 °F 27.0 °F 30.17 in Calm   1.0 mph 72 % 0.00 in
21:37 35.7 °F 28.0 °F 30.18 in Calm     73 % 0.00 in
21:52 35.8 °F 28.0 °F 30.17 in Calm   3.0 mph 73 % 0.00 in
22:07 35.7 °F 27.0 °F 30.17 in Calm     72 % 0.00 in
22:22 35.5 °F 28.0 °F 30.16 in Calm   4.0 mph 73 % 0.00 in
22:37 35.2 °F 27.0 °F 30.16 in Calm     73 % 0.00 in
22:52 34.9 °F 27.0 °F 30.16 in Calm   1.0 mph 74 % 0.00 in
23:07 34.9 °F 28.0 °F 30.16 in Calm     75 % 0.00 in
23:22 35.0 °F 28.0 °F 30.15 in Calm     75 % 0.00 in
23:37 35.1 °F 28.0 °F 30.14 in Calm   3.0 mph 75 % 0.00 in
23:52 35.2 °F 28.0 °F 30.13 in SSW 1.0 mph 1.0 mph 74 % 0.00 in
Des Moines Weather and Climate
Compliments of Weather Underground - 3 mb

Script developed by  Jim McMurry - jmcmurry@mwt.net Adapted for the template by  Wim van der Kuil - Leuven-Template.eu

You find our weather info also at:

Weather Underground

Equipment we use:

Weather-station
Davis VP2 Plus

Weather-program
Davis Weatherlink.Com

Weather-server
iMac (Retina 4K, 21.5-inch, Late 2015)

Provider
Hostmonster.com

Davis VP2 Plus

Davis Weatherlink.Com

iMac (Retina 4K, 21.5-inch, Late 2015)

Hostmonster.com